Terminal Aerodrome Forecast
Issued by NWS Jackson, KY

Home | Current Version | Previous Version | Text Only | Print | Product List | Glossary On
Versions: 1 2 3 4 5 6 7 8 9 10 11 12 13 14 15 16 17 18 19 20 21 22 23 24 25 26 27 28 29
000
FTUS43 KJKL 311120
TAFJKL
TAF
KJKL 311120Z 3112/0112 VRB03KT P6SM VCSH SCT040 BKN100
     FM311500 23008G15KT P6SM VCTS BKN035CB
     FM010100 VRB03KT P6SM BKN035
     FM010600 VRB03KT 4SM BR BKN015=

USA.gov is the U.S. government's official web portal to all federal, state and local government web resources and services.